Terminal Aerodrome Forecast
Issued by NWS Houston/Galveston, TX

Home | Current Version | Previous Version | Text Only | Print | Product List | Glossary On
Versions: 1 2 3 4 5 6 7 8 9 10 11 12 13 14 15 16 17 18 19 20 21 22 23 24 25 26 27 28 29 30 31 32 33 34 35 36 37 38 39 40 41
000
FTUS44 KHGX 062126 AAA
TAFCLL
TAF AMD
KCLL 062126Z 0621/0718 14013G17KT P6SM VCTS SCT035CB
     FM062300 14010KT P6SM SCT045
     FM070600 15009KT P6SM SCT010 BKN020
     FM071400 15014KT P6SM BKN035=

USA.gov is the U.S. government's official web portal to all federal, state and local government web resources and services.